sensor_id;sensor_type;location;lat;lon;timestamp;P1;durP1;ratioP1;P2;durP2;ratioP2
14550;SDS011;7362;50.956;4.184;2022-07-24T00:01:34;18.75;;;15.32;;
14550;SDS011;7362;50.956;4.184;2022-07-24T00:04:00;17.45;;;14.20;;
14550;SDS011;7362;50.956;4.184;2022-07-24T00:06:27;21.30;;;14.60;;
14550;SDS011;7362;50.956;4.184;2022-07-24T00:08:54;19.30;;;14.25;;
14550;SDS011;7362;50.956;4.184;2022-07-24T00:11:21;19.80;;;14.95;;
14550;SDS011;7362;50.956;4.184;2022-07-24T00:13:47;21.33;;;14.73;;
14550;SDS011;7362;50.956;4.184;2022-07-24T00:16:13;17.35;;;14.88;;
14550;SDS011;7362;50.956;4.184;2022-07-24T00:18:39;17.27;;;14.65;;
14550;SDS011;7362;50.956;4.184;2022-07-24T00:21:23;20.50;;;15.07;;
14550;SDS011;7362;50.956;4.184;2022-07-24T00:24:11;21.27;;;17.65;;
14550;SDS011;7362;50.956;4.184;2022-07-24T00:26:43;19.80;;;17.48;;
14550;SDS011;7362;50.956;4.184;2022-07-24T00:29:17;20.15;;;17.17;;
14550;SDS011;7362;50.956;4.184;2022-07-24T00:35:28;23.05;;;16.88;;
14550;SDS011;7362;50.956;4.184;2022-07-24T00:42:09;22.52;;;17.73;;
14550;SDS011;7362;50.956;4.184;2022-07-24T00:45:28;23.55;;;19.60;;
14550;SDS011;7362;50.956;4.184;2022-07-24T00:55:20;26.33;;;20.05;;
14550;SDS011;7362;50.956;4.184;2022-07-24T00:57:47;24.23;;;19.83;;
14550;SDS011;7362;50.956;4.184;2022-07-24T01:00:25;26.33;;;21.30;;
14550;SDS011;7362;50.956;4.184;2022-07-24T01:02:54;24.60;;;20.90;;
14550;SDS011;7362;50.956;4.184;2022-07-24T01:08:42;26.35;;;22.05;;
14550;SDS011;7362;50.956;4.184;2022-07-24T01:11:17;24.35;;;21.13;;
14550;SDS011;7362;50.956;4.184;2022-07-24T01:15:03;23.08;;;20.48;;
14550;SDS011;7362;50.956;4.184;2022-07-24T01:20:40;23.25;;;19.00;;
14550;SDS011;7362;50.956;4.184;2022-07-24T01:23:42;22.83;;;17.52;;
14550;SDS011;7362;50.956;4.184;2022-07-24T01:26:57;21.35;;;18.05;;
14550;SDS011;7362;50.956;4.184;2022-07-24T01:29:36;22.52;;;18.40;;
14550;SDS011;7362;50.956;4.184;2022-07-24T01:32:07;21.25;;;17.10;;
14550;SDS011;7362;50.956;4.184;2022-07-24T01:34:32;21.75;;;16.92;;
14550;SDS011;7362;50.956;4.184;2022-07-24T01:37:04;23.85;;;17.92;;
14550;SDS011;7362;50.956;4.184;2022-07-24T01:39:30;20.73;;;16.25;;
14550;SDS011;7362;50.956;4.184;2022-07-24T01:42:00;20.55;;;15.18;;
14550;SDS011;7362;50.956;4.184;2022-07-24T01:44:56;18.50;;;15.48;;
14550;SDS011;7362;50.956;4.184;2022-07-24T01:47:23;17.38;;;14.18;;
14550;SDS011;7362;50.956;4.184;2022-07-24T01:49:49;13.68;;;11.80;;
14550;SDS011;7362;50.956;4.184;2022-07-24T01:52:15;13.95;;;11.13;;
14550;SDS011;7362;50.956;4.184;2022-07-24T01:54:40;12.77;;;10.52;;
14550;SDS011;7362;50.956;4.184;2022-07-24T01:57:12;15.57;;;11.13;;
14550;SDS011;7362;50.956;4.184;2022-07-24T01:59:47;14.30;;;11.07;;
14550;SDS011;7362;50.956;4.184;2022-07-24T02:02:14;15.20;;;11.07;;
14550;SDS011;7362;50.956;4.184;2022-07-24T02:04:41;14.20;;;10.77;;
14550;SDS011;7362;50.956;4.184;2022-07-24T02:07:10;15.43;;;10.98;;
14550;SDS011;7362;50.956;4.184;2022-07-24T02:09:39;15.98;;;11.73;;
14550;SDS011;7362;50.956;4.184;2022-07-24T02:12:13;14.20;;;11.60;;
14550;SDS011;7362;50.956;4.184;2022-07-24T02:14:42;13.90;;;10.45;;
14550;SDS011;7362;50.956;4.184;2022-07-24T02:17:09;17.00;;;11.82;;
14550;SDS011;7362;50.956;4.184;2022-07-24T02:19:47;12.98;;;11.15;;
14550;SDS011;7362;50.956;4.184;2022-07-24T02:28:30;14.02;;;12.13;;
14550;SDS011;7362;50.956;4.184;2022-07-24T02:31:01;13.10;;;11.57;;
14550;SDS011;7362;50.956;4.184;2022-07-24T02:33:28;16.17;;;13.88;;
14550;SDS011;7362;50.956;4.184;2022-07-24T02:35:55;17.20;;;13.40;;
14550;SDS011;7362;50.956;4.184;2022-07-24T02:38:23;17.17;;;13.73;;
14550;SDS011;7362;50.956;4.184;2022-07-24T02:40:50;17.90;;;13.25;;
14550;SDS011;7362;50.956;4.184;2022-07-24T02:43:21;15.63;;;12.23;;
14550;SDS011;7362;50.956;4.184;2022-07-24T02:45:48;15.77;;;12.55;;
14550;SDS011;7362;50.956;4.184;2022-07-24T02:51:43;15.27;;;11.98;;
14550;SDS011;7362;50.956;4.184;2022-07-24T02:54:09;14.48;;;11.23;;
14550;SDS011;7362;50.956;4.184;2022-07-24T02:56:37;15.32;;;11.90;;
14550;SDS011;7362;50.956;4.184;2022-07-24T02:59:09;14.73;;;11.43;;
14550;SDS011;7362;50.956;4.184;2022-07-24T03:01:36;12.75;;;11.38;;
14550;SDS011;7362;50.956;4.184;2022-07-24T03:04:04;18.02;;;12.05;;
14550;SDS011;7362;50.956;4.184;2022-07-24T03:06:30;13.48;;;11.25;;
14550;SDS011;7362;50.956;4.184;2022-07-24T03:09:00;16.95;;;12.35;;
14550;SDS011;7362;50.956;4.184;2022-07-24T03:11:26;15.00;;;11.98;;
14550;SDS011;7362;50.956;4.184;2022-07-24T03:16:59;13.48;;;10.77;;
14550;SDS011;7362;50.956;4.184;2022-07-24T03:29:27;14.50;;;11.48;;
14550;SDS011;7362;50.956;4.184;2022-07-24T03:34:51;13.73;;;10.32;;
14550;SDS011;7362;50.956;4.184;2022-07-24T03:37:27;15.40;;;10.60;;
14550;SDS011;7362;50.956;4.184;2022-07-24T03:42:54;14.65;;;10.80;;
14550;SDS011;7362;50.956;4.184;2022-07-24T03:45:34;11.07;;;9.98;;
14550;SDS011;7362;50.956;4.184;2022-07-24T03:51:24;12.98;;;10.57;;
14550;SDS011;7362;50.956;4.184;2022-07-24T03:54:54;13.63;;;9.27;;
14550;SDS011;7362;50.956;4.184;2022-07-24T03:57:30;12.13;;;10.15;;
14550;SDS011;7362;50.956;4.184;2022-07-24T03:59:58;12.32;;;10.15;;
14550;SDS011;7362;50.956;4.184;2022-07-24T04:02:27;17.63;;;13.50;;
14550;SDS011;7362;50.956;4.184;2022-07-24T04:05:17;19.77;;;15.43;;
14550;SDS011;7362;50.956;4.184;2022-07-24T04:07:44;27.00;;;19.55;;
14550;SDS011;7362;50.956;4.184;2022-07-24T04:10:16;24.23;;;18.70;;
14550;SDS011;7362;50.956;4.184;2022-07-24T04:12:43;25.40;;;18.90;;
14550;SDS011;7362;50.956;4.184;2022-07-24T04:15:17;23.45;;;20.00;;
14550;SDS011;7362;50.956;4.184;2022-07-24T04:17:46;25.33;;;21.65;;
14550;SDS011;7362;50.956;4.184;2022-07-24T04:20:33;25.45;;;22.42;;
14550;SDS011;7362;50.956;4.184;2022-07-24T04:22:59;25.02;;;21.02;;
14550;SDS011;7362;50.956;4.184;2022-07-24T04:25:26;26.05;;;21.27;;
14550;SDS011;7362;50.956;4.184;2022-07-24T04:27:53;24.90;;;21.38;;
14550;SDS011;7362;50.956;4.184;2022-07-24T04:30:19;22.58;;;19.13;;
14550;SDS011;7362;50.956;4.184;2022-07-24T04:32:44;23.88;;;19.80;;
14550;SDS011;7362;50.956;4.184;2022-07-24T04:35:23;20.42;;;16.70;;
14550;SDS011;7362;50.956;4.184;2022-07-24T04:37:49;21.42;;;17.08;;
14550;SDS011;7362;50.956;4.184;2022-07-24T04:42:54;18.13;;;13.82;;
14550;SDS011;7362;50.956;4.184;2022-07-24T04:45:41;13.82;;;11.45;;
14550;SDS011;7362;50.956;4.184;2022-07-24T04:48:16;12.63;;;10.52;;
14550;SDS011;7362;50.956;4.184;2022-07-24T04:50:51;12.73;;;9.77;;
14550;SDS011;7362;50.956;4.184;2022-07-24T04:53:19;10.98;;;9.23;;
14550;SDS011;7362;50.956;4.184;2022-07-24T04:55:52;9.40;;;8.18;;
14550;SDS011;7362;50.956;4.184;2022-07-24T04:58:22;12.35;;;8.68;;
14550;SDS011;7362;50.956;4.184;2022-07-24T05:00:52;10.20;;;7.90;;
14550;SDS011;7362;50.956;4.184;2022-07-24T05:03:18;9.93;;;7.38;;
14550;SDS011;7362;50.956;4.184;2022-07-24T05:05:44;9.30;;;7.95;;
14550;SDS011;7362;50.956;4.184;2022-07-24T05:08:09;15.57;;;6.72;;
14550;SDS011;7362;50.956;4.184;2022-07-24T05:10:36;8.88;;;6.20;;
14550;SDS011;7362;50.956;4.184;2022-07-24T05:13:05;10.82;;;5.93;;
14550;SDS011;7362;50.956;4.184;2022-07-24T05:15:39;5.60;;;4.70;;
14550;SDS011;7362;50.956;4.184;2022-07-24T05:18:08;7.07;;;5.40;;
14550;SDS011;7362;50.956;4.184;2022-07-24T05:20:35;9.80;;;5.72;;
14550;SDS011;7362;50.956;4.184;2022-07-24T05:23:01;8.60;;;5.60;;
14550;SDS011;7362;50.956;4.184;2022-07-24T05:25:27;6.00;;;4.68;;
14550;SDS011;7362;50.956;4.184;2022-07-24T05:27:52;7.25;;;5.82;;
14550;SDS011;7362;50.956;4.184;2022-07-24T05:30:20;5.63;;;4.60;;
14550;SDS011;7362;50.956;4.184;2022-07-24T05:32:50;6.90;;;4.72;;
14550;SDS011;7362;50.956;4.184;2022-07-24T05:35:19;8.00;;;4.53;;
14550;SDS011;7362;50.956;4.184;2022-07-24T05:41:11;5.07;;;4.32;;
14550;SDS011;7362;50.956;4.184;2022-07-24T05:46:22;5.25;;;4.03;;
14550;SDS011;7362;50.956;4.184;2022-07-24T05:48:49;4.95;;;3.42;;
14550;SDS011;7362;50.956;4.184;2022-07-24T05:51:29;4.38;;;3.55;;
14550;SDS011;7362;50.956;4.184;2022-07-24T05:54:03;4.88;;;3.15;;
14550;SDS011;7362;50.956;4.184;2022-07-24T05:56:32;5.53;;;3.35;;
14550;SDS011;7362;50.956;4.184;2022-07-24T05:58:58;4.30;;;3.33;;
14550;SDS011;7362;50.956;4.184;2022-07-24T06:01:24;4.93;;;2.95;;
14550;SDS011;7362;50.956;4.184;2022-07-24T06:03:51;3.65;;;2.50;;
14550;SDS011;7362;50.956;4.184;2022-07-24T06:06:17;3.95;;;3.13;;
14550;SDS011;7362;50.956;4.184;2022-07-24T06:08:42;7.40;;;3.15;;
14550;SDS011;7362;50.956;4.184;2022-07-24T06:11:10;5.03;;;3.30;;
14550;SDS011;7362;50.956;4.184;2022-07-24T06:13:36;4.72;;;3.28;;
14550;SDS011;7362;50.956;4.184;2022-07-24T06:16:01;3.63;;;2.88;;
14550;SDS011;7362;50.956;4.184;2022-07-24T06:18:27;3.85;;;2.72;;
14550;SDS011;7362;50.956;4.184;2022-07-24T06:20:54;3.58;;;2.45;;
14550;SDS011;7362;50.956;4.184;2022-07-24T06:23:20;3.47;;;2.45;;
14550;SDS011;7362;50.956;4.184;2022-07-24T06:25:46;3.72;;;2.47;;
14550;SDS011;7362;50.956;4.184;2022-07-24T06:28:11;2.83;;;2.50;;
14550;SDS011;7362;50.956;4.184;2022-07-24T06:30:37;4.38;;;2.75;;
14550;SDS011;7362;50.956;4.184;2022-07-24T06:33:03;4.55;;;2.47;;
14550;SDS011;7362;50.956;4.184;2022-07-24T06:35:29;4.35;;;2.85;;
14550;SDS011;7362;50.956;4.184;2022-07-24T06:37:57;4.38;;;3.00;;
14550;SDS011;7362;50.956;4.184;2022-07-24T06:40:26;6.43;;;3.65;;
14550;SDS011;7362;50.956;4.184;2022-07-24T06:42:55;4.45;;;3.42;;
14550;SDS011;7362;50.956;4.184;2022-07-24T06:45:21;5.57;;;3.67;;
14550;SDS011;7362;50.956;4.184;2022-07-24T06:47:48;6.28;;;4.22;;
14550;SDS011;7362;50.956;4.184;2022-07-24T06:50:14;6.15;;;4.57;;
14550;SDS011;7362;50.956;4.184;2022-07-24T06:52:40;5.90;;;4.40;;
14550;SDS011;7362;50.956;4.184;2022-07-24T06:55:08;7.53;;;5.20;;
14550;SDS011;7362;50.956;4.184;2022-07-24T06:57:34;6.70;;;4.78;;
14550;SDS011;7362;50.956;4.184;2022-07-24T07:00:01;6.80;;;4.65;;
14550;SDS011;7362;50.956;4.184;2022-07-24T07:02:28;6.10;;;4.68;;
14550;SDS011;7362;50.956;4.184;2022-07-24T07:04:54;5.05;;;4.28;;
14550;SDS011;7362;50.956;4.184;2022-07-24T07:07:23;6.95;;;4.40;;
14550;SDS011;7362;50.956;4.184;2022-07-24T07:09:50;4.00;;;3.53;;
14550;SDS011;7362;50.956;4.184;2022-07-24T07:12:16;4.93;;;3.92;;
14550;SDS011;7362;50.956;4.184;2022-07-24T07:14:42;5.95;;;3.92;;
14550;SDS011;7362;50.956;4.184;2022-07-24T07:17:08;4.65;;;3.47;;
14550;SDS011;7362;50.956;4.184;2022-07-24T07:19:34;5.75;;;3.60;;
14550;SDS011;7362;50.956;4.184;2022-07-24T07:22:00;4.70;;;3.15;;
14550;SDS011;7362;50.956;4.184;2022-07-24T07:24:28;3.65;;;2.83;;
14550;SDS011;7362;50.956;4.184;2022-07-24T07:26:54;3.17;;;2.85;;
14550;SDS011;7362;50.956;4.184;2022-07-24T07:29:20;4.32;;;2.90;;
14550;SDS011;7362;50.956;4.184;2022-07-24T07:37:57;5.10;;;2.70;;
14550;SDS011;7362;50.956;4.184;2022-07-24T07:42:51;4.82;;;2.28;;
14550;SDS011;7362;50.956;4.184;2022-07-24T07:45:17;4.35;;;2.47;;
14550;SDS011;7362;50.956;4.184;2022-07-24T07:47:43;3.50;;;2.40;;
14550;SDS011;7362;50.956;4.184;2022-07-24T07:50:12;3.60;;;2.50;;
14550;SDS011;7362;50.956;4.184;2022-07-24T07:52:39;2.45;;;1.98;;
14550;SDS011;7362;50.956;4.184;2022-07-24T07:55:06;3.88;;;2.53;;
14550;SDS011;7362;50.956;4.184;2022-07-24T07:57:32;5.28;;;3.13;;
14550;SDS011;7362;50.956;4.184;2022-07-24T07:59:57;4.53;;;2.55;;
14550;SDS011;7362;50.956;4.184;2022-07-24T08:02:23;2.88;;;2.55;;
14550;SDS011;7362;50.956;4.184;2022-07-24T08:04:49;3.20;;;2.40;;
14550;SDS011;7362;50.956;4.184;2022-07-24T08:07:15;3.28;;;2.45;;
14550;SDS011;7362;50.956;4.184;2022-07-24T08:09:40;3.35;;;2.88;;
14550;SDS011;7362;50.956;4.184;2022-07-24T08:12:06;4.35;;;2.63;;
14550;SDS011;7362;50.956;4.184;2022-07-24T08:14:32;2.97;;;2.53;;
14550;SDS011;7362;50.956;4.184;2022-07-24T08:16:58;3.22;;;2.63;;
14550;SDS011;7362;50.956;4.184;2022-07-24T08:19:23;3.50;;;2.70;;
14550;SDS011;7362;50.956;4.184;2022-07-24T08:21:49;6.80;;;3.00;;
14550;SDS011;7362;50.956;4.184;2022-07-24T08:24:15;5.00;;;2.50;;
14550;SDS011;7362;50.956;4.184;2022-07-24T08:26:48;4.43;;;2.25;;
14550;SDS011;7362;50.956;4.184;2022-07-24T08:29:14;2.80;;;2.47;;
14550;SDS011;7362;50.956;4.184;2022-07-24T08:31:43;2.60;;;2.20;;
14550;SDS011;7362;50.956;4.184;2022-07-24T08:34:08;2.83;;;2.30;;
14550;SDS011;7362;50.956;4.184;2022-07-24T08:36:37;4.40;;;2.35;;
14550;SDS011;7362;50.956;4.184;2022-07-24T08:39:06;2.40;;;2.20;;
14550;SDS011;7362;50.956;4.184;2022-07-24T08:41:32;3.40;;;2.17;;
14550;SDS011;7362;50.956;4.184;2022-07-24T08:44:00;2.90;;;2.17;;
14550;SDS011;7362;50.956;4.184;2022-07-24T08:46:29;2.30;;;1.90;;
14550;SDS011;7362;50.956;4.184;2022-07-24T08:48:57;2.58;;;2.28;;
14550;SDS011;7362;50.956;4.184;2022-07-24T08:51:35;2.10;;;1.90;;
14550;SDS011;7362;50.956;4.184;2022-07-24T08:54:02;3.47;;;2.10;;
14550;SDS011;7362;50.956;4.184;2022-07-24T08:56:32;2.63;;;2.10;;
14550;SDS011;7362;50.956;4.184;2022-07-24T08:58:59;2.63;;;2.20;;
14550;SDS011;7362;50.956;4.184;2022-07-24T09:01:26;3.38;;;2.38;;
14550;SDS011;7362;50.956;4.184;2022-07-24T09:03:53;2.05;;;1.85;;
14550;SDS011;7362;50.956;4.184;2022-07-24T09:06:21;2.60;;;2.40;;
14550;SDS011;7362;50.956;4.184;2022-07-24T09:09:00;2.22;;;2.05;;
14550;SDS011;7362;50.956;4.184;2022-07-24T09:11:28;2.13;;;1.92;;
14550;SDS011;7362;50.956;4.184;2022-07-24T09:13:59;2.85;;;1.92;;
14550;SDS011;7362;50.956;4.184;2022-07-24T09:16:45;3.38;;;1.83;;
14550;SDS011;7362;50.956;4.184;2022-07-24T09:19:11;2.70;;;2.17;;
14550;SDS011;7362;50.956;4.184;2022-07-24T09:21:39;3.00;;;2.00;;
14550;SDS011;7362;50.956;4.184;2022-07-24T09:24:20;1.98;;;1.83;;
14550;SDS011;7362;50.956;4.184;2022-07-24T09:29:16;2.42;;;2.03;;
14550;SDS011;7362;50.956;4.184;2022-07-24T09:31:58;1.92;;;1.73;;
14550;SDS011;7362;50.956;4.184;2022-07-24T09:34:29;2.58;;;1.50;;
14550;SDS011;7362;50.956;4.184;2022-07-24T09:37:07;1.90;;;1.70;;
14550;SDS011;7362;50.956;4.184;2022-07-24T09:39:37;1.67;;;1.58;;
14550;SDS011;7362;50.956;4.184;2022-07-24T09:42:04;2.03;;;1.60;;
14550;SDS011;7362;50.956;4.184;2022-07-24T09:44:31;3.40;;;1.88;;
14550;SDS011;7362;50.956;4.184;2022-07-24T09:47:03;2.13;;;1.80;;
14550;SDS011;7362;50.956;4.184;2022-07-24T09:49:36;2.70;;;1.77;;
14550;SDS011;7362;50.956;4.184;2022-07-24T09:57:28;1.85;;;1.65;;
14550;SDS011;7362;50.956;4.184;2022-07-24T09:59:57;2.08;;;1.65;;
14550;SDS011;7362;50.956;4.184;2022-07-24T10:02:28;2.88;;;1.92;;
14550;SDS011;7362;50.956;4.184;2022-07-24T10:04:56;3.53;;;1.90;;
14550;SDS011;7362;50.956;4.184;2022-07-24T10:07:24;1.90;;;1.60;;
14550;SDS011;7362;50.956;4.184;2022-07-24T10:09:55;2.95;;;1.90;;
14550;SDS011;7362;50.956;4.184;2022-07-24T10:12:23;2.35;;;1.42;;
14550;SDS011;7362;50.956;4.184;2022-07-24T10:25:16;2.25;;;1.60;;
14550;SDS011;7362;50.956;4.184;2022-07-24T10:40:39;2.33;;;1.88;;
14550;SDS011;7362;50.956;4.184;2022-07-24T10:43:16;2.05;;;1.85;;
14550;SDS011;7362;50.956;4.184;2022-07-24T10:48:38;1.98;;;1.88;;
14550;SDS011;7362;50.956;4.184;2022-07-24T10:53:44;2.25;;;1.63;;
14550;SDS011;7362;50.956;4.184;2022-07-24T10:59:04;1.60;;;1.50;;
14550;SDS011;7362;50.956;4.184;2022-07-24T11:01:45;1.65;;;1.55;;
14550;SDS011;7362;50.956;4.184;2022-07-24T11:04:34;1.70;;;1.60;;
14550;SDS011;7362;50.956;4.184;2022-07-24T11:18:35;2.00;;;1.88;;
14550;SDS011;7362;50.956;4.184;2022-07-24T11:24:18;2.92;;;1.90;;
14550;SDS011;7362;50.956;4.184;2022-07-24T11:35:16;2.80;;;1.90;;
14550;SDS011;7362;50.956;4.184;2022-07-24T11:38:06;2.47;;;1.98;;
14550;SDS011;7362;50.956;4.184;2022-07-24T11:40:33;2.10;;;1.95;;
14550;SDS011;7362;50.956;4.184;2022-07-24T11:43:11;2.35;;;2.15;;
14550;SDS011;7362;50.956;4.184;2022-07-24T11:45:50;2.30;;;2.10;;
14550;SDS011;7362;50.956;4.184;2022-07-24T11:51:03;2.55;;;2.22;;
14550;SDS011;7362;50.956;4.184;2022-07-24T11:53:35;4.03;;;2.50;;
14550;SDS011;7362;50.956;4.184;2022-07-24T11:56:08;2.45;;;2.25;;
14550;SDS011;7362;50.956;4.184;2022-07-24T11:58:47;2.70;;;2.20;;
14550;SDS011;7362;50.956;4.184;2022-07-24T12:01:28;2.50;;;2.30;;
14550;SDS011;7362;50.956;4.184;2022-07-24T12:03:56;3.15;;;2.55;;
14550;SDS011;7362;50.956;4.184;2022-07-24T12:06:32;3.15;;;2.40;;
14550;SDS011;7362;50.956;4.184;2022-07-24T12:09:09;3.00;;;2.22;;
14550;SDS011;7362;50.956;4.184;2022-07-24T12:11:35;2.53;;;2.33;;
14550;SDS011;7362;50.956;4.184;2022-07-24T12:14:04;2.50;;;2.30;;
14550;SDS011;7362;50.956;4.184;2022-07-24T12:19:24;2.60;;;2.40;;
14550;SDS011;7362;50.956;4.184;2022-07-24T12:21:57;3.67;;;2.65;;
14550;SDS011;7362;50.956;4.184;2022-07-24T12:24:27;2.65;;;2.30;;
14550;SDS011;7362;50.956;4.184;2022-07-24T12:27:09;3.25;;;2.92;;
14550;SDS011;7362;50.956;4.184;2022-07-24T12:29:40;2.50;;;2.30;;
14550;SDS011;7362;50.956;4.184;2022-07-24T12:35:51;2.35;;;2.15;;
14550;SDS011;7362;50.956;4.184;2022-07-24T12:38:32;2.40;;;2.20;;
14550;SDS011;7362;50.956;4.184;2022-07-24T12:44:23;2.60;;;2.25;;
14550;SDS011;7362;50.956;4.184;2022-07-24T12:50:30;4.50;;;2.28;;
14550;SDS011;7362;50.956;4.184;2022-07-24T13:00:57;2.53;;;2.20;;
14550;SDS011;7362;50.956;4.184;2022-07-24T13:03:59;3.42;;;2.13;;
14550;SDS011;7362;50.956;4.184;2022-07-24T13:22:19;5.05;;;2.92;;
14550;SDS011;7362;50.956;4.184;2022-07-24T13:24:47;2.40;;;2.13;;
14550;SDS011;7362;50.956;4.184;2022-07-24T13:27:16;2.53;;;2.33;;
14550;SDS011;7362;50.956;4.184;2022-07-24T13:40:08;4.90;;;3.10;;
14550;SDS011;7362;50.956;4.184;2022-07-24T13:42:37;4.50;;;3.33;;
14550;SDS011;7362;50.956;4.184;2022-07-24T13:45:05;3.15;;;2.25;;
14550;SDS011;7362;50.956;4.184;2022-07-24T13:47:34;2.45;;;2.25;;
14550;SDS011;7362;50.956;4.184;2022-07-24T13:50:06;2.40;;;2.20;;
14550;SDS011;7362;50.956;4.184;2022-07-24T13:52:33;4.57;;;2.28;;
14550;SDS011;7362;50.956;4.184;2022-07-24T13:54:59;2.72;;;2.47;;
14550;SDS011;7362;50.956;4.184;2022-07-24T13:57:25;4.18;;;2.20;;
14550;SDS011;7362;50.956;4.184;2022-07-24T13:59:54;2.78;;;2.25;;
14550;SDS011;7362;50.956;4.184;2022-07-24T14:02:21;3.35;;;2.53;;
14550;SDS011;7362;50.956;4.184;2022-07-24T14:04:49;2.75;;;2.13;;
14550;SDS011;7362;50.956;4.184;2022-07-24T14:07:15;3.20;;;2.72;;
14550;SDS011;7362;50.956;4.184;2022-07-24T14:09:43;2.50;;;2.28;;
14550;SDS011;7362;50.956;4.184;2022-07-24T14:14:40;2.88;;;2.55;;
14550;SDS011;7362;50.956;4.184;2022-07-24T14:17:07;3.05;;;2.22;;
14550;SDS011;7362;50.956;4.184;2022-07-24T14:19:36;4.82;;;2.97;;
14550;SDS011;7362;50.956;4.184;2022-07-24T14:22:09;3.75;;;2.30;;
14550;SDS011;7362;50.956;4.184;2022-07-24T14:24:36;4.00;;;2.53;;
14550;SDS011;7362;50.956;4.184;2022-07-24T14:27:03;2.35;;;2.15;;
14550;SDS011;7362;50.956;4.184;2022-07-24T14:29:32;2.63;;;2.10;;
14550;SDS011;7362;50.956;4.184;2022-07-24T14:31:59;4.80;;;2.30;;
14550;SDS011;7362;50.956;4.184;2022-07-24T14:34:26;3.45;;;2.40;;
14550;SDS011;7362;50.956;4.184;2022-07-24T14:36:51;3.05;;;2.53;;
14550;SDS011;7362;50.956;4.184;2022-07-24T14:39:18;3.03;;;2.72;;
14550;SDS011;7362;50.956;4.184;2022-07-24T14:41:46;3.65;;;2.40;;
14550;SDS011;7362;50.956;4.184;2022-07-24T14:44:14;2.88;;;2.50;;
14550;SDS011;7362;50.956;4.184;2022-07-24T14:46:40;3.40;;;2.65;;
14550;SDS011;7362;50.956;4.184;2022-07-24T14:49:07;3.15;;;2.60;;
14550;SDS011;7362;50.956;4.184;2022-07-24T14:51:33;3.45;;;2.83;;
14550;SDS011;7362;50.956;4.184;2022-07-24T14:54:00;4.13;;;2.70;;
14550;SDS011;7362;50.956;4.184;2022-07-24T14:56:27;3.10;;;2.60;;
14550;SDS011;7362;50.956;4.184;2022-07-24T14:58:53;5.82;;;2.65;;
14550;SDS011;7362;50.956;4.184;2022-07-24T15:01:21;2.60;;;2.40;;
14550;SDS011;7362;50.956;4.184;2022-07-24T15:03:47;7.50;;;3.05;;
14550;SDS011;7362;50.956;4.184;2022-07-24T15:06:14;3.40;;;2.80;;
14550;SDS011;7362;50.956;4.184;2022-07-24T15:08:42;3.80;;;3.13;;
14550;SDS011;7362;50.956;4.184;2022-07-24T15:11:12;3.90;;;2.88;;
14550;SDS011;7362;50.956;4.184;2022-07-24T15:13:40;4.25;;;3.33;;
14550;SDS011;7362;50.956;4.184;2022-07-24T15:16:07;3.80;;;3.05;;
14550;SDS011;7362;50.956;4.184;2022-07-24T15:18:34;3.60;;;3.05;;
14550;SDS011;7362;50.956;4.184;2022-07-24T15:21:02;3.10;;;2.80;;
14550;SDS011;7362;50.956;4.184;2022-07-24T15:23:29;2.97;;;2.67;;
14550;SDS011;7362;50.956;4.184;2022-07-24T15:25:56;4.20;;;3.08;;
14550;SDS011;7362;50.956;4.184;2022-07-24T15:28:24;4.38;;;3.10;;
14550;SDS011;7362;50.956;4.184;2022-07-24T15:30:52;3.42;;;2.85;;
14550;SDS011;7362;50.956;4.184;2022-07-24T15:33:21;3.95;;;2.83;;
14550;SDS011;7362;50.956;4.184;2022-07-24T15:35:49;3.60;;;2.65;;
14550;SDS011;7362;50.956;4.184;2022-07-24T15:38:15;4.07;;;2.78;;
14550;SDS011;7362;50.956;4.184;2022-07-24T15:40:43;4.25;;;2.90;;
14550;SDS011;7362;50.956;4.184;2022-07-24T15:43:11;4.43;;;3.25;;
14550;SDS011;7362;50.956;4.184;2022-07-24T15:45:45;4.45;;;3.17;;
14550;SDS011;7362;50.956;4.184;2022-07-24T15:48:20;3.33;;;2.63;;
14550;SDS011;7362;50.956;4.184;2022-07-24T15:50:54;4.28;;;2.58;;
14550;SDS011;7362;50.956;4.184;2022-07-24T15:53:26;3.55;;;2.85;;
14550;SDS011;7362;50.956;4.184;2022-07-24T15:55:52;3.72;;;2.70;;
14550;SDS011;7362;50.956;4.184;2022-07-24T16:00:52;3.72;;;3.00;;
14550;SDS011;7362;50.956;4.184;2022-07-24T16:03:27;4.10;;;2.60;;
14550;SDS011;7362;50.956;4.184;2022-07-24T16:05:54;6.70;;;4.50;;
14550;SDS011;7362;50.956;4.184;2022-07-24T16:08:23;3.85;;;2.90;;
14550;SDS011;7362;50.956;4.184;2022-07-24T16:10:52;6.50;;;4.35;;
14550;SDS011;7362;50.956;4.184;2022-07-24T16:13:21;4.95;;;3.00;;
14550;SDS011;7362;50.956;4.184;2022-07-24T16:15:48;3.20;;;2.90;;
14550;SDS011;7362;50.956;4.184;2022-07-24T16:18:15;4.68;;;3.47;;
14550;SDS011;7362;50.956;4.184;2022-07-24T16:20:48;3.85;;;3.15;;
14550;SDS011;7362;50.956;4.184;2022-07-24T16:23:37;2.75;;;2.53;;
14550;SDS011;7362;50.956;4.184;2022-07-24T16:26:04;3.47;;;3.08;;
14550;SDS011;7362;50.956;4.184;2022-07-24T16:28:34;9.10;;;3.00;;
14550;SDS011;7362;50.956;4.184;2022-07-24T16:31:02;3.55;;;2.53;;
14550;SDS011;7362;50.956;4.184;2022-07-24T16:33:28;3.58;;;2.88;;
14550;SDS011;7362;50.956;4.184;2022-07-24T16:35:56;3.70;;;3.00;;
14550;SDS011;7362;50.956;4.184;2022-07-24T16:38:23;3.78;;;2.72;;
14550;SDS011;7362;50.956;4.184;2022-07-24T16:40:49;3.63;;;2.60;;
14550;SDS011;7362;50.956;4.184;2022-07-24T16:43:17;3.90;;;2.90;;
14550;SDS011;7362;50.956;4.184;2022-07-24T16:45:43;6.68;;;3.40;;
14550;SDS011;7362;50.956;4.184;2022-07-24T16:48:09;4.28;;;2.90;;
14550;SDS011;7362;50.956;4.184;2022-07-24T16:50:35;4.30;;;3.00;;
14550;SDS011;7362;50.956;4.184;2022-07-24T16:53:02;4.00;;;2.65;;
14550;SDS011;7362;50.956;4.184;2022-07-24T16:55:30;3.28;;;2.97;;
14550;SDS011;7362;50.956;4.184;2022-07-24T16:57:55;4.60;;;2.72;;
14550;SDS011;7362;50.956;4.184;2022-07-24T17:00:23;3.30;;;3.00;;
14550;SDS011;7362;50.956;4.184;2022-07-24T17:02:50;3.72;;;2.75;;
14550;SDS011;7362;50.956;4.184;2022-07-24T17:05:16;2.65;;;2.45;;
14550;SDS011;7362;50.956;4.184;2022-07-24T17:07:45;4.85;;;2.92;;
14550;SDS011;7362;50.956;4.184;2022-07-24T17:10:11;4.55;;;2.85;;
14550;SDS011;7362;50.956;4.184;2022-07-24T17:12:37;3.40;;;2.65;;
14550;SDS011;7362;50.956;4.184;2022-07-24T17:15:09;3.25;;;2.65;;
14550;SDS011;7362;50.956;4.184;2022-07-24T17:17:41;3.83;;;2.90;;
14550;SDS011;7362;50.956;4.184;2022-07-24T17:20:25;3.17;;;2.88;;
14550;SDS011;7362;50.956;4.184;2022-07-24T17:22:53;3.15;;;2.85;;
14550;SDS011;7362;50.956;4.184;2022-07-24T17:25:19;2.80;;;2.40;;
14550;SDS011;7362;50.956;4.184;2022-07-24T17:27:46;2.92;;;2.40;;
14550;SDS011;7362;50.956;4.184;2022-07-24T17:30:13;4.32;;;3.28;;
14550;SDS011;7362;50.956;4.184;2022-07-24T17:32:42;3.65;;;2.67;;
14550;SDS011;7362;50.956;4.184;2022-07-24T17:35:17;3.17;;;2.67;;
14550;SDS011;7362;50.956;4.184;2022-07-24T17:37:43;4.50;;;2.88;;
14550;SDS011;7362;50.956;4.184;2022-07-24T17:40:12;4.55;;;2.80;;
14550;SDS011;7362;50.956;4.184;2022-07-24T17:42:39;5.28;;;2.75;;
14550;SDS011;7362;50.956;4.184;2022-07-24T17:45:07;4.03;;;2.90;;
14550;SDS011;7362;50.956;4.184;2022-07-24T17:47:36;3.03;;;2.72;;
14550;SDS011;7362;50.956;4.184;2022-07-24T17:50:13;3.25;;;2.72;;
14550;SDS011;7362;50.956;4.184;2022-07-24T17:52:46;3.10;;;2.72;;
14550;SDS011;7362;50.956;4.184;2022-07-24T17:55:12;3.40;;;2.70;;
14550;SDS011;7362;50.956;4.184;2022-07-24T17:57:39;4.53;;;3.10;;
14550;SDS011;7362;50.956;4.184;2022-07-24T18:02:36;3.72;;;2.80;;
14550;SDS011;7362;50.956;4.184;2022-07-24T18:05:05;4.65;;;3.33;;
14550;SDS011;7362;50.956;4.184;2022-07-24T18:07:38;4.55;;;2.85;;
14550;SDS011;7362;50.956;4.184;2022-07-24T18:10:14;3.90;;;3.03;;
14550;SDS011;7362;50.956;4.184;2022-07-24T18:15:38;4.43;;;2.80;;
14550;SDS011;7362;50.956;4.184;2022-07-24T18:26:55;5.03;;;3.08;;
14550;SDS011;7362;50.956;4.184;2022-07-24T18:35:10;3.65;;;2.65;;
14550;SDS011;7362;50.956;4.184;2022-07-24T18:43:21;4.97;;;3.22;;
14550;SDS011;7362;50.956;4.184;2022-07-24T18:45:51;3.67;;;2.80;;
14550;SDS011;7362;50.956;4.184;2022-07-24T18:48:19;5.93;;;3.20;;